sensor_id;sensor_type;location;lat;lon;timestamp;pressure;altitude;pressure_sealevel;temperature;humidity
3294;BME280;1659;51.470;6.770;2024-01-15T00:00:06;100171.53;;;0.89;100.00
3294;BME280;1659;51.470;6.770;2024-01-15T00:02:33;100169.81;;;0.89;100.00
3294;BME280;1659;51.470;6.770;2024-01-15T00:04:59;100160.25;;;0.88;100.00
3294;BME280;1659;51.470;6.770;2024-01-15T00:07:26;100151.56;;;0.86;100.00
3294;BME280;1659;51.470;6.770;2024-01-15T00:09:52;100148.97;;;0.86;100.00
3294;BME280;1659;51.470;6.770;2024-01-15T00:12:19;100142.00;;;0.85;100.00
3294;BME280;1659;51.470;6.770;2024-01-15T00:14:45;100135.09;;;0.86;100.00
3294;BME280;1659;51.470;6.770;2024-01-15T00:17:13;100132.50;;;0.87;100.00
3294;BME280;1659;51.470;6.770;2024-01-15T00:19:40;100134.25;;;0.88;100.00
3294;BME280;1659;51.470;6.770;2024-01-15T00:22:06;100129.94;;;0.90;100.00
3294;BME280;1659;51.470;6.770;2024-01-15T00:24:33;100118.69;;;0.91;100.00
3294;BME280;1659;51.470;6.770;2024-01-15T00:26:59;100115.19;;;0.92;100.00
3294;BME280;1659;51.470;6.770;2024-01-15T00:29:26;100119.56;;;0.93;100.00
3294;BME280;1659;51.470;6.770;2024-01-15T00:31:53;100119.59;;;0.95;100.00
3294;BME280;1659;51.470;6.770;2024-01-15T00:34:21;100122.19;;;0.97;100.00
3294;BME280;1659;51.470;6.770;2024-01-15T00:36:47;100110.94;;;0.99;100.00
3294;BME280;1659;51.470;6.770;2024-01-15T00:39:14;100115.28;;;0.99;100.00
3294;BME280;1659;51.470;6.770;2024-01-15T00:41:42;100113.56;;;1.01;100.00
3294;BME280;1659;51.470;6.770;2024-01-15T00:44:09;100105.75;;;1.01;100.00
3294;BME280;1659;51.470;6.770;2024-01-15T00:46:42;100103.16;;;1.01;100.00
3294;BME280;1659;51.470;6.770;2024-01-15T00:49:09;100104.88;;;0.99;100.00
3294;BME280;1659;51.470;6.770;2024-01-15T00:51:37;100108.34;;;0.99;100.00
3294;BME280;1659;51.470;6.770;2024-01-15T00:54:03;100112.69;;;0.99;100.00
3294;BME280;1659;51.470;6.770;2024-01-15T00:56:30;100113.53;;;0.99;100.00
3294;BME280;1659;51.470;6.770;2024-01-15T00:58:56;100112.69;;;0.99;100.00
3294;BME280;1659;51.470;6.770;2024-01-15T01:01:23;100110.97;;;1.01;100.00
3294;BME280;1659;51.470;6.770;2024-01-15T01:03:49;100103.13;;;0.99;100.00
3294;BME280;1659;51.470;6.770;2024-01-15T01:06:16;100101.41;;;1.01;100.00
3294;BME280;1659;51.470;6.770;2024-01-15T01:08:44;100102.31;;;1.02;100.00
3294;BME280;1659;51.470;6.770;2024-01-15T01:11:12;100091.03;;;1.03;100.00
3294;BME280;1659;51.470;6.770;2024-01-15T01:13:39;100100.59;;;1.04;100.00
3294;BME280;1659;51.470;6.770;2024-01-15T01:16:05;100095.38;;;1.04;100.00
3294;BME280;1659;51.470;6.770;2024-01-15T01:18:32;100091.91;;;1.03;100.00
3294;BME280;1659;51.470;6.770;2024-01-15T01:20:59;100098.00;;;1.05;100.00
3294;BME280;1659;51.470;6.770;2024-01-15T01:23:26;100085.00;;;1.05;100.00
3294;BME280;1659;51.470;6.770;2024-01-15T01:25:53;100094.53;;;1.06;100.00
3294;BME280;1659;51.470;6.770;2024-01-15T01:28:20;100091.91;;;1.06;100.00
3294;BME280;1659;51.470;6.770;2024-01-15T01:30:47;100084.13;;;1.08;100.00
3294;BME280;1659;51.470;6.770;2024-01-15T01:33:13;100098.03;;;1.07;100.00
3294;BME280;1659;51.470;6.770;2024-01-15T01:35:40;100094.53;;;1.08;100.00
3294;BME280;1659;51.470;6.770;2024-01-15T01:38:06;100096.31;;;1.09;100.00
3294;BME280;1659;51.470;6.770;2024-01-15T01:40:33;100083.28;;;1.07;100.00
3294;BME280;1659;51.470;6.770;2024-01-15T01:43:02;100090.22;;;1.08;100.00
3294;BME280;1659;51.470;6.770;2024-01-15T01:45:29;100097.16;;;1.09;100.00
3294;BME280;1659;51.470;6.770;2024-01-15T01:47:55;100099.78;;;1.11;100.00
3294;BME280;1659;51.470;6.770;2024-01-15T01:50:22;100097.19;;;1.12;100.00
3294;BME280;1659;51.470;6.770;2024-01-15T01:52:49;100087.66;;;1.13;100.00
3294;BME280;1659;51.470;6.770;2024-01-15T01:55:16;100092.00;;;1.14;100.00
3294;BME280;1659;51.470;6.770;2024-01-15T01:57:43;100099.81;;;1.14;100.00
3294;BME280;1659;51.470;6.770;2024-01-15T02:00:12;100101.53;;;1.15;100.00
3294;BME280;1659;51.470;6.770;2024-01-15T02:02:39;100094.63;;;1.14;100.00
3294;BME280;1659;51.470;6.770;2024-01-15T02:05:06;100101.53;;;1.12;100.00
3294;BME280;1659;51.470;6.770;2024-01-15T02:07:34;100097.19;;;1.12;100.00
3294;BME280;1659;51.470;6.770;2024-01-15T02:10:01;100108.50;;;1.15;100.00
3294;BME280;1659;51.470;6.770;2024-01-15T02:12:28;100105.88;;;1.13;100.00
3294;BME280;1659;51.470;6.770;2024-01-15T02:14:54;100097.19;;;1.11;100.00
3294;BME280;1659;51.470;6.770;2024-01-15T02:17:22;100103.25;;;1.08;100.00
3294;BME280;1659;51.470;6.770;2024-01-15T02:19:49;100100.63;;;1.10;100.00
3294;BME280;1659;51.470;6.770;2024-01-15T02:22:16;100095.41;;;1.10;100.00
3294;BME280;1659;51.470;6.770;2024-01-15T02:24:44;100101.53;;;1.10;100.00
3294;BME280;1659;51.470;6.770;2024-01-15T02:27:10;100095.44;;;1.11;100.00
3294;BME280;1659;51.470;6.770;2024-01-15T02:29:37;100099.81;;;1.12;100.00
3294;BME280;1659;51.470;6.770;2024-01-15T02:32:04;100093.72;;;1.12;100.00
3294;BME280;1659;51.470;6.770;2024-01-15T02:34:31;100099.78;;;1.11;100.00
3294;BME280;1659;51.470;6.770;2024-01-15T02:36:58;100106.72;;;1.10;100.00
3294;BME280;1659;51.470;6.770;2024-01-15T02:39:25;100103.25;;;1.13;100.00
3294;BME280;1659;51.470;6.770;2024-01-15T02:41:52;100104.13;;;1.15;100.00
3294;BME280;1659;51.470;6.770;2024-01-15T02:44:21;100101.56;;;1.18;100.00
3294;BME280;1659;51.470;6.770;2024-01-15T02:46:48;100109.41;;;1.21;100.00
3294;BME280;1659;51.470;6.770;2024-01-15T02:49:14;100096.41;;;1.21;100.00
3294;BME280;1659;51.470;6.770;2024-01-15T02:51:41;100096.41;;;1.21;100.00
3294;BME280;1659;51.470;6.770;2024-01-15T02:54:07;100090.31;;;1.22;100.00
3294;BME280;1659;51.470;6.770;2024-01-15T02:56:34;100082.50;;;1.22;100.00
3294;BME280;1659;51.470;6.770;2024-01-15T02:59:02;100091.22;;;1.23;100.00
3294;BME280;1659;51.470;6.770;2024-01-15T03:01:29;100094.69;;;1.23;100.00
3294;BME280;1659;51.470;6.770;2024-01-15T03:03:56;100092.94;;;1.22;100.00
3294;BME280;1659;51.470;6.770;2024-01-15T03:06:23;100094.66;;;1.22;100.00
3294;BME280;1659;51.470;6.770;2024-01-15T03:08:50;100086.84;;;1.20;100.00
3294;BME280;1659;51.470;6.770;2024-01-15T03:11:16;100086.84;;;1.20;100.00
3294;BME280;1659;51.470;6.770;2024-01-15T03:13:43;100085.13;;;1.19;100.00
3294;BME280;1659;51.470;6.770;2024-01-15T03:16:11;100079.91;;;1.19;100.00
3294;BME280;1659;51.470;6.770;2024-01-15T03:18:38;100090.31;;;1.18;100.00
3294;BME280;1659;51.470;6.770;2024-01-15T03:21:05;100085.97;;;1.18;100.00
3294;BME280;1659;51.470;6.770;2024-01-15T03:23:32;100087.69;;;1.18;100.00
3294;BME280;1659;51.470;6.770;2024-01-15T03:25:58;100091.16;;;1.18;100.00
3294;BME280;1659;51.470;6.770;2024-01-15T03:28:25;100094.63;;;1.19;100.00
3294;BME280;1659;51.470;6.770;2024-01-15T03:30:51;100089.44;;;1.16;100.00
3294;BME280;1659;51.470;6.770;2024-01-15T03:33:19;100088.53;;;1.17;100.00
3294;BME280;1659;51.470;6.770;2024-01-15T03:35:46;100091.16;;;1.17;100.00
3294;BME280;1659;51.470;6.770;2024-01-15T03:38:12;100078.13;;;1.15;100.00
3294;BME280;1659;51.470;6.770;2024-01-15T03:40:39;100095.44;;;1.11;100.00
3294;BME280;1659;51.470;6.770;2024-01-15T03:43:06;100088.50;;;1.10;100.00
3294;BME280;1659;51.470;6.770;2024-01-15T03:45:32;100073.72;;;1.08;100.00
3294;BME280;1659;51.470;6.770;2024-01-15T03:47:59;100082.44;;;1.08;100.00
3294;BME280;1659;51.470;6.770;2024-01-15T03:50:27;100081.56;;;1.11;100.00
3294;BME280;1659;51.470;6.770;2024-01-15T03:52:53;100084.19;;;1.12;100.00
3294;BME280;1659;51.470;6.770;2024-01-15T03:55:20;100083.31;;;1.15;100.00
3294;BME280;1659;51.470;6.770;2024-01-15T03:57:46;100090.28;;;1.16;100.00
3294;BME280;1659;51.470;6.770;2024-01-15T04:00:15;100084.25;;;1.17;100.00
3294;BME280;1659;51.470;6.770;2024-01-15T04:02:42;100076.44;;;1.17;100.00
3294;BME280;1659;51.470;6.770;2024-01-15T04:05:09;100068.59;;;1.19;100.00
3294;BME280;1659;51.470;6.770;2024-01-15T04:07:37;100072.09;;;1.19;100.00
3294;BME280;1659;51.470;6.770;2024-01-15T04:10:04;100076.44;;;1.17;100.00
3294;BME280;1659;51.470;6.770;2024-01-15T04:12:31;100064.28;;;1.18;100.00
3294;BME280;1659;51.470;6.770;2024-01-15T04:14:57;100059.94;;;1.17;100.00
3294;BME280;1659;51.470;6.770;2024-01-15T04:17:24;100057.28;;;1.13;100.00
3294;BME280;1659;51.470;6.770;2024-01-15T04:19:50;100051.22;;;1.11;100.00
3294;BME280;1659;51.470;6.770;2024-01-15T04:22:17;100046.00;;;1.10;100.00
3294;BME280;1659;51.470;6.770;2024-01-15T04:24:45;100050.34;;;1.11;100.00
3294;BME280;1659;51.470;6.770;2024-01-15T04:27:11;100054.69;;;1.12;100.00
3294;BME280;1659;51.470;6.770;2024-01-15T04:29:38;100041.69;;;1.12;100.00
3294;BME280;1659;51.470;6.770;2024-01-15T04:32:05;100042.56;;;1.14;100.00
3294;BME280;1659;51.470;6.770;2024-01-15T04:34:32;100037.38;;;1.14;100.00
3294;BME280;1659;51.470;6.770;2024-01-15T04:36:58;100035.63;;;1.13;100.00
3294;BME280;1659;51.470;6.770;2024-01-15T04:39:25;100039.94;;;1.12;100.00
3294;BME280;1659;51.470;6.770;2024-01-15T04:41:53;100046.91;;;1.12;100.00
3294;BME280;1659;51.470;6.770;2024-01-15T04:44:19;100042.53;;;1.11;100.00
3294;BME280;1659;51.470;6.770;2024-01-15T04:46:46;100038.19;;;1.11;100.00
3294;BME280;1659;51.470;6.770;2024-01-15T04:49:13;100035.59;;;1.11;100.00
3294;BME280;1659;51.470;6.770;2024-01-15T04:51:39;100033.88;;;1.12;100.00
3294;BME280;1659;51.470;6.770;2024-01-15T04:54:06;100033.88;;;1.10;100.00
3294;BME280;1659;51.470;6.770;2024-01-15T04:56:32;100038.19;;;1.10;100.00
3294;BME280;1659;51.470;6.770;2024-01-15T04:59:00;100026.91;;;1.09;100.00
3294;BME280;1659;51.470;6.770;2024-01-15T05:01:30;100027.78;;;1.08;100.00
3294;BME280;1659;51.470;6.770;2024-01-15T05:03:57;100026.91;;;1.08;100.00
3294;BME280;1659;51.470;6.770;2024-01-15T05:06:23;100018.22;;;1.06;100.00
3294;BME280;1659;51.470;6.770;2024-01-15T05:08:50;100032.06;;;1.05;100.00
3294;BME280;1659;51.470;6.770;2024-01-15T05:11:17;100019.06;;;1.05;100.00
3294;BME280;1659;51.470;6.770;2024-01-15T05:13:43;100018.19;;;1.03;100.00
3294;BME280;1659;51.470;6.770;2024-01-15T05:16:11;100012.13;;;1.02;100.00
3294;BME280;1659;51.470;6.770;2024-01-15T05:18:38;100021.66;;;1.02;100.00
3294;BME280;1659;51.470;6.770;2024-01-15T05:21:04;100016.44;;;1.00;100.00
3294;BME280;1659;51.470;6.770;2024-01-15T05:23:31;100012.97;;;1.00;100.00
3294;BME280;1659;51.470;6.770;2024-01-15T05:25:58;100015.56;;;1.00;100.00
3294;BME280;1659;51.470;6.770;2024-01-15T05:28:24;100017.31;;;1.02;100.00
3294;BME280;1659;51.470;6.770;2024-01-15T05:30:51;100003.47;;;1.03;100.00
3294;BME280;1659;51.470;6.770;2024-01-15T05:33:20;99998.25;;;1.05;100.00
3294;BME280;1659;51.470;6.770;2024-01-15T05:35:46;100011.28;;;1.06;100.00
3294;BME280;1659;51.470;6.770;2024-01-15T05:38:13;100006.09;;;1.08;100.00
3294;BME280;1659;51.470;6.770;2024-01-15T05:40:39;100006.97;;;1.10;100.00
3294;BME280;1659;51.470;6.770;2024-01-15T05:43:06;100006.09;;;1.09;100.00
3294;BME280;1659;51.470;6.770;2024-01-15T05:45:34;100001.78;;;1.11;100.00
3294;BME280;1659;51.470;6.770;2024-01-15T05:48:01;100007.88;;;1.12;100.00
3294;BME280;1659;51.470;6.770;2024-01-15T05:50:28;100002.66;;;1.12;100.00
3294;BME280;1659;51.470;6.770;2024-01-15T05:52:55;100007.00;;;1.15;100.00
3294;BME280;1659;51.470;6.770;2024-01-15T05:55:22;100005.28;;;1.17;100.00
3294;BME280;1659;51.470;6.770;2024-01-15T05:57:48;100001.84;;;1.21;100.00
3294;BME280;1659;51.470;6.770;2024-01-15T06:00:15;100009.66;;;1.22;100.00
3294;BME280;1659;51.470;6.770;2024-01-15T06:02:42;100017.47;;;1.25;100.00
3294;BME280;1659;51.470;6.770;2024-01-15T06:05:09;100004.47;;;1.27;100.00
3294;BME280;1659;51.470;6.770;2024-01-15T06:07:37;100000.16;;;1.27;100.00
3294;BME280;1659;51.470;6.770;2024-01-15T06:10:04;99993.25;;;1.29;100.00
3294;BME280;1659;51.470;6.770;2024-01-15T06:12:31;99999.31;;;1.30;100.00
3294;BME280;1659;51.470;6.770;2024-01-15T06:14:59;99988.91;;;1.30;100.00
3294;BME280;1659;51.470;6.770;2024-01-15T06:17:25;99999.31;;;1.31;100.00
3294;BME280;1659;51.470;6.770;2024-01-15T06:19:52;99998.44;;;1.32;100.00
3294;BME280;1659;51.470;6.770;2024-01-15T06:22:19;99988.91;;;1.33;100.00
3294;BME280;1659;51.470;6.770;2024-01-15T06:24:46;99995.00;;;1.34;100.00
3294;BME280;1659;51.470;6.770;2024-01-15T06:27:13;99988.03;;;1.34;100.00
3294;BME280;1659;51.470;6.770;2024-01-15T06:29:45;99987.22;;;1.37;100.00
3294;BME280;1659;51.470;6.770;2024-01-15T06:32:11;99989.81;;;1.37;100.00
3294;BME280;1659;51.470;6.770;2024-01-15T06:34:38;99982.88;;;1.39;100.00
3294;BME280;1659;51.470;6.770;2024-01-15T06:37:04;99975.94;;;1.41;100.00
3294;BME280;1659;51.470;6.770;2024-01-15T06:39:31;99982.00;;;1.41;100.00
3294;BME280;1659;51.470;6.770;2024-01-15T06:41:59;99983.75;;;1.42;100.00
3294;BME280;1659;51.470;6.770;2024-01-15T06:44:25;99984.63;;;1.43;100.00
3294;BME280;1659;51.470;6.770;2024-01-15T06:46:52;99976.81;;;1.43;100.00
3294;BME280;1659;51.470;6.770;2024-01-15T06:49:22;99988.09;;;1.42;100.00
3294;BME280;1659;51.470;6.770;2024-01-15T06:51:49;99975.94;;;1.41;100.00
3294;BME280;1659;51.470;6.770;2024-01-15T06:54:15;99978.53;;;1.41;100.00
3294;BME280;1659;51.470;6.770;2024-01-15T06:56:42;99988.09;;;1.39;100.00
3294;BME280;1659;51.470;6.770;2024-01-15T06:59:10;99987.22;;;1.37;100.00
3294;BME280;1659;51.470;6.770;2024-01-15T07:01:36;99974.19;;;1.37;100.00
3294;BME280;1659;51.470;6.770;2024-01-15T07:04:03;99988.03;;;1.34;100.00
3294;BME280;1659;51.470;6.770;2024-01-15T07:06:30;99986.34;;;1.35;100.00
3294;BME280;1659;51.470;6.770;2024-01-15T07:08:56;99986.31;;;1.33;100.00
3294;BME280;1659;51.470;6.770;2024-01-15T07:11:23;99984.56;;;1.32;100.00
3294;BME280;1659;51.470;6.770;2024-01-15T07:13:50;99993.25;;;1.32;100.00
3294;BME280;1659;51.470;6.770;2024-01-15T07:16:18;100000.19;;;1.34;100.00
3294;BME280;1659;51.470;6.770;2024-01-15T07:18:44;99988.91;;;1.33;100.00
3294;BME280;1659;51.470;6.770;2024-01-15T07:21:11;99990.63;;;1.32;100.00
3294;BME280;1659;51.470;6.770;2024-01-15T07:23:37;99983.72;;;1.31;100.00
3294;BME280;1659;51.470;6.770;2024-01-15T07:26:04;99983.72;;;1.31;100.00
3294;BME280;1659;51.470;6.770;2024-01-15T07:28:31;99980.22;;;1.29;100.00
3294;BME280;1659;51.470;6.770;2024-01-15T07:30:58;99974.13;;;1.29;100.00
3294;BME280;1659;51.470;6.770;2024-01-15T07:33:26;99984.53;;;1.29;100.00
3294;BME280;1659;51.470;6.770;2024-01-15T07:35:52;99988.88;;;1.28;100.00
3294;BME280;1659;51.470;6.770;2024-01-15T07:38:19;99981.13;;;1.38;100.00
3294;BME280;1659;51.470;6.770;2024-01-15T07:40:45;99982.03;;;1.44;100.00
3294;BME280;1659;51.470;6.770;2024-01-15T07:43:14;99982.94;;;1.49;100.00
3294;BME280;1659;51.470;6.770;2024-01-15T07:45:41;99980.31;;;1.46;100.00
3294;BME280;1659;51.470;6.770;2024-01-15T07:48:07;99974.22;;;1.44;100.00
3294;BME280;1659;51.470;6.770;2024-01-15T07:50:36;99979.41;;;1.43;100.00
3294;BME280;1659;51.470;6.770;2024-01-15T07:53:02;99983.75;;;1.41;100.00
3294;BME280;1659;51.470;6.770;2024-01-15T07:55:30;99978.50;;;1.36;100.00
3294;BME280;1659;51.470;6.770;2024-01-15T07:57:57;99991.53;;;1.33;100.00
3294;BME280;1659;51.470;6.770;2024-01-15T08:00:24;99980.22;;;1.29;100.00
3294;BME280;1659;51.470;6.770;2024-01-15T08:02:51;99981.94;;;1.27;100.00
3294;BME280;1659;51.470;6.770;2024-01-15T08:05:18;99983.66;;;1.25;100.00
3294;BME280;1659;51.470;6.770;2024-01-15T08:07:47;99987.06;;;1.18;100.00
3294;BME280;1659;51.470;6.770;2024-01-15T08:10:14;99978.38;;;1.15;100.00
3294;BME280;1659;51.470;6.770;2024-01-15T08:12:41;99987.06;;;1.12;100.00
3294;BME280;1659;51.470;6.770;2024-01-15T08:15:07;99980.94;;;1.10;100.00
3294;BME280;1659;51.470;6.770;2024-01-15T08:17:34;99987.88;;;1.09;100.00
3294;BME280;1659;51.470;6.770;2024-01-15T08:20:00;99981.81;;;1.09;100.00
3294;BME280;1659;51.470;6.770;2024-01-15T08:22:28;99982.66;;;1.08;100.00
3294;BME280;1659;51.470;6.770;2024-01-15T08:24:55;99982.66;;;1.06;100.00
3294;BME280;1659;51.470;6.770;2024-01-15T08:27:22;99987.00;;;1.06;100.00
3294;BME280;1659;51.470;6.770;2024-01-15T08:29:49;99987.00;;;1.07;100.00
3294;BME280;1659;51.470;6.770;2024-01-15T08:32:15;99993.06;;;1.06;100.00
3294;BME280;1659;51.470;6.770;2024-01-15T08:34:42;99991.34;;;1.05;100.00
3294;BME280;1659;51.470;6.770;2024-01-15T08:37:08;99995.66;;;1.02;100.00
3294;BME280;1659;51.470;6.770;2024-01-15T08:39:35;99992.97;;;0.94;100.00
3294;BME280;1659;51.470;6.770;2024-01-15T08:42:05;99998.16;;;0.91;100.00
3294;BME280;1659;51.470;6.770;2024-01-15T08:44:31;99993.78;;;0.87;100.00
3294;BME280;1659;51.470;6.770;2024-01-15T08:46:58;100011.09;;;0.83;100.00
3294;BME280;1659;51.470;6.770;2024-01-15T08:49:25;100007.59;;;0.80;100.00
3294;BME280;1659;51.470;6.770;2024-01-15T08:51:51;100025.75;;;0.75;100.00
3294;BME280;1659;51.470;6.770;2024-01-15T08:54:18;100014.44;;;0.68;100.00
3294;BME280;1659;51.470;6.770;2024-01-15T08:56:45;100019.59;;;0.64;100.00
3294;BME280;1659;51.470;6.770;2024-01-15T08:59:13;100008.28;;;0.60;100.00
3294;BME280;1659;51.470;6.770;2024-01-15T09:01:41;100015.19;;;0.56;100.00
3294;BME280;1659;51.470;6.770;2024-01-15T09:04:08;100023.00;;;0.56;100.00
3294;BME280;1659;51.470;6.770;2024-01-15T09:06:34;100019.50;;;0.53;100.00
3294;BME280;1659;51.470;6.770;2024-01-15T09:09:01;100016.88;;;0.51;100.00
3294;BME280;1659;51.470;6.770;2024-01-15T09:11:27;100011.66;;;0.50;100.00
3294;BME280;1659;51.470;6.770;2024-01-15T09:13:54;100012.50;;;0.50;100.00
3294;BME280;1659;51.470;6.770;2024-01-15T09:16:22;100018.59;;;0.51;100.00
3294;BME280;1659;51.470;6.770;2024-01-15T09:18:48;100020.34;;;0.53;100.00
3294;BME280;1659;51.470;6.770;2024-01-15T09:21:15;100016.91;;;0.57;100.00
3294;BME280;1659;51.470;6.770;2024-01-15T09:23:41;100014.31;;;0.59;100.00
3294;BME280;1659;51.470;6.770;2024-01-15T09:26:08;100014.38;;;0.62;100.00
3294;BME280;1659;51.470;6.770;2024-01-15T09:28:35;100009.19;;;0.64;100.00
3294;BME280;1659;51.470;6.770;2024-01-15T09:31:01;100010.13;;;0.70;100.00
3294;BME280;1659;51.470;6.770;2024-01-15T09:33:29;100021.41;;;0.74;100.00
3294;BME280;1659;51.470;6.770;2024-01-15T09:35:56;100018.84;;;0.79;100.00
3294;BME280;1659;51.470;6.770;2024-01-15T09:38:22;100013.66;;;0.82;100.00
3294;BME280;1659;51.470;6.770;2024-01-15T09:40:50;100015.44;;;0.83;100.00
3294;BME280;1659;51.470;6.770;2024-01-15T09:43:18;100011.97;;;0.85;100.00
3294;BME280;1659;51.470;6.770;2024-01-15T09:45:45;100017.19;;;0.87;100.00
3294;BME280;1659;51.470;6.770;2024-01-15T09:48:13;100018.06;;;0.89;100.00
3294;BME280;1659;51.470;6.770;2024-01-15T09:50:41;100018.97;;;0.91;100.00
3294;BME280;1659;51.470;6.770;2024-01-15T09:53:08;100019.84;;;0.93;100.00
3294;BME280;1659;51.470;6.770;2024-01-15T09:55:36;100016.41;;;0.96;100.00
3294;BME280;1659;51.470;6.770;2024-01-15T09:58:03;100021.63;;;0.99;100.00
3294;BME280;1659;51.470;6.770;2024-01-15T10:00:30;100018.19;;;1.00;100.00
3294;BME280;1659;51.470;6.770;2024-01-15T10:02:57;100025.09;;;0.99;100.00
3294;BME280;1659;51.470;6.770;2024-01-15T10:05:25;100019.03;;;0.99;100.00
3294;BME280;1659;51.470;6.770;2024-01-15T10:07:54;100016.44;;;0.99;100.00
3294;BME280;1659;51.470;6.770;2024-01-15T10:10:22;100020.78;;;1.01;100.00
3294;BME280;1659;51.470;6.770;2024-01-15T10:12:49;100016.47;;;1.02;100.00
3294;BME280;1659;51.470;6.770;2024-01-15T10:15:16;100013.88;;;1.03;100.00
3294;BME280;1659;51.470;6.770;2024-01-15T10:17:43;100015.63;;;1.06;100.00
3294;BME280;1659;51.470;6.770;2024-01-15T10:20:10;100013.03;;;1.09;100.00
3294;BME280;1659;51.470;6.770;2024-01-15T10:22:40;100005.25;;;1.13;100.00
3294;BME280;1659;51.470;6.770;2024-01-15T10:25:11;100008.78;;;1.17;100.00
3294;BME280;1659;51.470;6.770;2024-01-15T10:27:38;100009.66;;;1.19;100.00
3294;BME280;1659;51.470;6.770;2024-01-15T10:30:06;100009.66;;;1.21;100.00
3294;BME280;1659;51.470;6.770;2024-01-15T10:32:33;100015.75;;;1.23;100.00
3294;BME280;1659;51.470;6.770;2024-01-15T10:34:59;100013.16;;;1.26;100.00
3294;BME280;1659;51.470;6.770;2024-01-15T10:37:26;100008.84;;;1.28;100.00
3294;BME280;1659;51.470;6.770;2024-01-15T10:39:53;100018.34;;;1.27;100.00
3294;BME280;1659;51.470;6.770;2024-01-15T10:42:20;100010.56;;;1.27;100.00
3294;BME280;1659;51.470;6.770;2024-01-15T10:44:47;100012.28;;;1.27;100.00
3294;BME280;1659;51.470;6.770;2024-01-15T10:47:14;100013.16;;;1.29;100.00
3294;BME280;1659;51.470;6.770;2024-01-15T10:49:41;100018.44;;;1.37;100.00
3294;BME280;1659;51.470;6.770;2024-01-15T10:52:08;100013.25;;;1.43;100.00
3294;BME280;1659;51.470;6.770;2024-01-15T10:54:36;100006.31;;;1.45;100.00
3294;BME280;1659;51.470;6.770;2024-01-15T10:57:04;100006.38;;;1.51;100.00
3294;BME280;1659;51.470;6.770;2024-01-15T10:59:33;100020.41;;;1.73;100.00
3294;BME280;1659;51.470;6.770;2024-01-15T11:01:59;100016.13;;;1.89;100.00
3294;BME280;1659;51.470;6.770;2024-01-15T11:04:26;100015.31;;;2.13;100.00
3294;BME280;1659;51.470;6.770;2024-01-15T11:06:54;100019.75;;;2.31;100.00
3294;BME280;1659;51.470;6.770;2024-01-15T11:09:22;100011.94;;;2.34;100.00
3294;BME280;1659;51.470;6.770;2024-01-15T11:11:52;100011.09;;;2.40;100.00
3294;BME280;1659;51.470;6.770;2024-01-15T11:14:35;100007.59;;;2.32;100.00
3294;BME280;1659;51.470;6.770;2024-01-15T11:17:02;100016.25;;;2.21;100.00
3294;BME280;1659;51.470;6.770;2024-01-15T11:19:36;100016.19;;;2.11;100.00
3294;BME280;1659;51.470;6.770;2024-01-15T11:22:03;100022.28;;;2.06;100.00
3294;BME280;1659;51.470;6.770;2024-01-15T11:24:35;100010.97;;;2.03;100.00
3294;BME280;1659;51.470;6.770;2024-01-15T11:27:02;100010.97;;;2.00;100.00
3294;BME280;1659;51.470;6.770;2024-01-15T11:29:30;100012.66;;;1.95;100.00
3294;BME280;1659;51.470;6.770;2024-01-15T11:32:04;100011.78;;;1.88;100.00
3294;BME280;1659;51.470;6.770;2024-01-15T11:34:50;100018.69;;;1.83;100.00
3294;BME280;1659;51.470;6.770;2024-01-15T11:37:17;100016.94;;;1.77;100.00
3294;BME280;1659;51.470;6.770;2024-01-15T11:39:44;100022.97;;;1.75;100.00
3294;BME280;1659;51.470;6.770;2024-01-15T11:42:12;100019.53;;;1.74;100.00
3294;BME280;1659;51.470;6.770;2024-01-15T11:44:39;100016.06;;;1.74;100.00
3294;BME280;1659;51.470;6.770;2024-01-15T11:47:09;100025.59;;;1.70;100.00
3294;BME280;1659;51.470;6.770;2024-01-15T11:50:01;100024.69;;;1.71;100.00
3294;BME280;1659;51.470;6.770;2024-01-15T11:52:32;100026.47;;;1.72;100.00
3294;BME280;1659;51.470;6.770;2024-01-15T11:55:02;100016.03;;;1.70;100.00
3294;BME280;1659;51.470;6.770;2024-01-15T11:57:40;100013.41;;;1.69;100.00
3294;BME280;1659;51.470;6.770;2024-01-15T12:00:10;100019.53;;;1.74;100.00
3294;BME280;1659;51.470;6.770;2024-01-15T12:02:39;100010.03;;;1.84;100.00
3294;BME280;1659;51.470;6.770;2024-01-15T12:05:07;100006.63;;;2.02;100.00
3294;BME280;1659;51.470;6.770;2024-01-15T12:07:34;100010.13;;;2.10;100.00
3294;BME280;1659;51.470;6.770;2024-01-15T12:10:00;99998.84;;;2.16;100.00
3294;BME280;1659;51.470;6.770;2024-01-15T12:12:36;99996.31;;;2.34;100.00
3294;BME280;1659;51.470;6.770;2024-01-15T12:15:06;100012.84;;;2.49;100.00
3294;BME280;1659;51.470;6.770;2024-01-15T12:17:34;100008.50;;;2.58;100.00
3294;BME280;1659;51.470;6.770;2024-01-15T12:20:03;100006.78;;;2.60;100.00
3294;BME280;1659;51.470;6.770;2024-01-15T12:22:30;100000.69;;;2.71;100.00
3294;BME280;1659;51.470;6.770;2024-01-15T12:24:56;99997.22;;;2.75;100.00
3294;BME280;1659;51.470;6.770;2024-01-15T12:27:24;99998.09;;;2.72;100.00
3294;BME280;1659;51.470;6.770;2024-01-15T12:29:52;99997.22;;;2.72;100.00
3294;BME280;1659;51.470;6.770;2024-01-15T12:32:19;99995.47;;;2.75;100.00
3294;BME280;1659;51.470;6.770;2024-01-15T12:34:46;100001.56;;;2.79;100.00
3294;BME280;1659;51.470;6.770;2024-01-15T12:37:14;99998.94;;;2.76;100.00
3294;BME280;1659;51.470;6.770;2024-01-15T12:39:43;100015.47;;;2.70;100.00
3294;BME280;1659;51.470;6.770;2024-01-15T12:42:09;100017.19;;;2.65;100.00
3294;BME280;1659;51.470;6.770;2024-01-15T12:44:36;100011.09;;;2.58;100.00
3294;BME280;1659;51.470;6.770;2024-01-15T12:47:03;100012.84;;;2.52;100.00
3294;BME280;1659;51.470;6.770;2024-01-15T12:49:30;100025.00;;;2.45;100.00
3294;BME280;1659;51.470;6.770;2024-01-15T12:51:57;100023.25;;;2.41;100.00
3294;BME280;1659;51.470;6.770;2024-01-15T12:54:26;100026.72;;;2.40;100.00
3294;BME280;1659;51.470;6.770;2024-01-15T12:56:52;100027.59;;;2.34;100.00
3294;BME280;1659;51.470;6.770;2024-01-15T12:59:19;100025.81;;;2.30;100.00
3294;BME280;1659;51.470;6.770;2024-01-15T13:01:46;100028.41;;;2.27;100.00
3294;BME280;1659;51.470;6.770;2024-01-15T13:04:21;100036.25;;;2.30;100.00
3294;BME280;1659;51.470;6.770;2024-01-15T13:06:48;100026.72;;;2.35;100.00
3294;BME280;1659;51.470;6.770;2024-01-15T13:09:14;100026.72;;;2.40;100.00
3294;BME280;1659;51.470;6.770;2024-01-15T13:11:43;100028.47;;;2.42;100.00